sensor_id;sensor_type;location;lat;lon;timestamp;pressure;altitude;pressure_sealevel;temperature;humidity
63395;BME280;49531;-34.520;150.798;2023-03-14T00:01:07;100981.81;;;21.33;79.05
63395;BME280;49531;-34.520;150.798;2023-03-14T00:03:34;100983.44;;;21.34;78.96
63395;BME280;49531;-34.520;150.798;2023-03-14T00:06:03;100982.63;;;21.34;79.28
63395;BME280;49531;-34.520;150.798;2023-03-14T00:08:31;100992.94;;;21.32;79.27
63395;BME280;49531;-34.520;150.798;2023-03-14T00:11:03;100983.34;;;21.24;79.59
63395;BME280;49531;-34.520;150.798;2023-03-14T00:13:30;100987.47;;;21.26;79.55
63395;BME280;49531;-34.520;150.798;2023-03-14T00:16:02;100997.75;;;21.24;79.69
63395;BME280;49531;-34.520;150.798;2023-03-14T00:18:30;100981.72;;;21.23;79.63
63395;BME280;49531;-34.520;150.798;2023-03-14T00:20:59;100984.38;;;21.18;79.57
63395;BME280;49531;-34.520;150.798;2023-03-14T00:23:31;100984.66;;;21.16;79.58
63395;BME280;49531;-34.520;150.798;2023-03-14T00:26:01;100992.25;;;21.19;79.33
63395;BME280;49531;-34.520;150.798;2023-03-14T00:28:28;100986.28;;;21.17;79.56
63395;BME280;49531;-34.520;150.798;2023-03-14T00:30:56;100994.44;;;21.17;79.49
63395;BME280;49531;-34.520;150.798;2023-03-14T00:33:23;100988.75;;;21.19;79.48
63395;BME280;49531;-34.520;150.798;2023-03-14T00:35:57;100982.19;;;21.20;79.03
63395;BME280;49531;-34.520;150.798;2023-03-14T00:38:25;100970.25;;;21.16;79.41
63395;BME280;49531;-34.520;150.798;2023-03-14T00:43:19;100979.38;;;21.05;79.94
63395;BME280;49531;-34.520;150.798;2023-03-14T00:45:49;100972.31;;;21.04;79.82
63395;BME280;49531;-34.520;150.798;2023-03-14T00:48:17;100973.16;;;21.09;79.73
63395;BME280;49531;-34.520;150.798;2023-03-14T00:50:45;100966.91;;;21.09;79.89
63395;BME280;49531;-34.520;150.798;2023-03-14T00:53:12;100972.69;;;21.17;79.54
63395;BME280;49531;-34.520;150.798;2023-03-14T00:55:40;100971.88;;;21.17;79.58
63395;BME280;49531;-34.520;150.798;2023-03-14T00:58:09;100966.72;;;21.15;79.74
63395;BME280;49531;-34.520;150.798;2023-03-14T01:00:37;100969.72;;;21.19;79.87
63395;BME280;49531;-34.520;150.798;2023-03-14T01:03:04;100955.84;;;21.20;79.99
63395;BME280;49531;-34.520;150.798;2023-03-14T01:05:32;100950.66;;;21.46;79.51
63395;BME280;49531;-34.520;150.798;2023-03-14T01:07:59;100940.72;;;21.24;80.25
63395;BME280;49531;-34.520;150.798;2023-03-14T01:10:27;100930.34;;;21.21;80.71
63395;BME280;49531;-34.520;150.798;2023-03-14T01:12:54;100930.34;;;21.21;80.48
63395;BME280;49531;-34.520;150.798;2023-03-14T01:15:21;100927.88;;;21.20;81.00
63395;BME280;49531;-34.520;150.798;2023-03-14T01:17:48;100926.03;;;21.25;80.77
63395;BME280;49531;-34.520;150.798;2023-03-14T01:20:17;100927.09;;;21.61;80.71
63395;BME280;49531;-34.520;150.798;2023-03-14T01:22:44;100928.16;;;22.90;76.68
63395;BME280;49531;-34.520;150.798;2023-03-14T01:25:14;100925.09;;;22.61;76.83
63395;BME280;49531;-34.520;150.798;2023-03-14T01:29:41;100928.91;;;21.88;79.28
63395;BME280;49531;-34.520;150.798;2023-03-14T01:32:08;100927.41;;;21.65;80.55
63395;BME280;49531;-34.520;150.798;2023-03-14T01:48:54;100912.34;;;24.28;69.81
63395;BME280;49531;-34.520;150.798;2023-03-14T01:51:29;100900.09;;;24.15;70.11
63395;BME280;49531;-34.520;150.798;2023-03-14T01:54:05;100900.03;;;27.96;80.86
63395;BME280;49531;-34.520;150.798;2023-03-14T01:56:35;100879.75;;;26.15;63.49
63395;BME280;49531;-34.520;150.798;2023-03-14T01:59:05;100892.91;;;25.42;65.89
63395;BME280;49531;-34.520;150.798;2023-03-14T02:01:33;100891.94;;;25.27;67.37
63395;BME280;49531;-34.520;150.798;2023-03-14T02:04:02;100885.44;;;25.23;67.02
63395;BME280;49531;-34.520;150.798;2023-03-14T02:06:42;100884.31;;;25.24;66.88
63395;BME280;49531;-34.520;150.798;2023-03-14T02:09:12;100880.53;;;25.20;67.39
63395;BME280;49531;-34.520;150.798;2023-03-14T02:11:39;100869.28;;;24.93;68.81
63395;BME280;49531;-34.520;150.798;2023-03-14T02:14:07;100865.78;;;24.87;68.97
63395;BME280;49531;-34.520;150.798;2023-03-14T02:16:40;100874.72;;;24.64;69.86
63395;BME280;49531;-34.520;150.798;2023-03-14T02:19:08;100879.94;;;24.60;70.23
63395;BME280;49531;-34.520;150.798;2023-03-14T02:21:52;100876.00;;;24.77;68.77
63395;BME280;49531;-34.520;150.798;2023-03-14T02:24:40;100856.97;;;24.62;69.05
63395;BME280;49531;-34.520;150.798;2023-03-14T02:27:13;100858.28;;;24.69;68.83
63395;BME280;49531;-34.520;150.798;2023-03-14T02:29:49;100844.50;;;24.50;69.10
63395;BME280;49531;-34.520;150.798;2023-03-14T02:32:18;100860.50;;;24.67;68.61
63395;BME280;49531;-34.520;150.798;2023-03-14T02:34:49;100857.25;;;24.60;69.72
63395;BME280;49531;-34.520;150.798;2023-03-14T02:37:19;100853.78;;;24.49;70.44
63395;BME280;49531;-34.520;150.798;2023-03-14T02:39:48;100845.94;;;24.77;69.77
63395;BME280;49531;-34.520;150.798;2023-03-14T02:42:16;100842.94;;;24.78;70.38
63395;BME280;49531;-34.520;150.798;2023-03-14T02:44:53;100845.16;;;25.05;67.67
63395;BME280;49531;-34.520;150.798;2023-03-14T02:47:28;100841.72;;;24.89;69.34
63395;BME280;49531;-34.520;150.798;2023-03-14T02:50:02;100832.69;;;24.89;69.56
63395;BME280;49531;-34.520;150.798;2023-03-14T02:52:30;100838.50;;;24.82;69.95
63395;BME280;49531;-34.520;150.798;2023-03-14T02:54:57;100826.84;;;25.06;67.95
63395;BME280;49531;-34.520;150.798;2023-03-14T02:57:24;100820.91;;;24.93;68.55
63395;BME280;49531;-34.520;150.798;2023-03-14T02:59:51;100834.22;;;25.05;67.80
63395;BME280;49531;-34.520;150.798;2023-03-14T03:02:18;100815.00;;;24.81;69.23
63395;BME280;49531;-34.520;150.798;2023-03-14T03:04:46;100822.81;;;24.93;69.61
63395;BME280;49531;-34.520;150.798;2023-03-14T03:07:13;100823.88;;;25.02;68.96
63395;BME280;49531;-34.520;150.798;2023-03-14T03:09:40;100816.59;;;24.87;69.20
63395;BME280;49531;-34.520;150.798;2023-03-14T03:12:07;100800.84;;;25.08;67.85
63395;BME280;49531;-34.520;150.798;2023-03-14T03:14:34;100809.00;;;25.13;68.33
63395;BME280;49531;-34.520;150.798;2023-03-14T03:17:04;100807.47;;;25.26;66.49
63395;BME280;49531;-34.520;150.798;2023-03-14T03:19:33;100803.97;;;25.20;67.14
63395;BME280;49531;-34.520;150.798;2023-03-14T03:22:00;100804.97;;;25.30;67.25
63395;BME280;49531;-34.520;150.798;2023-03-14T03:24:28;100806.50;;;25.17;67.10
63395;BME280;49531;-34.520;150.798;2023-03-14T03:26:55;100801.50;;;25.24;66.32
63395;BME280;49531;-34.520;150.798;2023-03-14T03:29:22;100805.44;;;25.37;65.71
63395;BME280;49531;-34.520;150.798;2023-03-14T03:31:49;100799.03;;;25.22;65.65
63395;BME280;49531;-34.520;150.798;2023-03-14T03:34:16;100802.25;;;25.30;65.91
63395;BME280;49531;-34.520;150.798;2023-03-14T03:36:43;100799.69;;;25.14;67.00
63395;BME280;49531;-34.520;150.798;2023-03-14T03:39:10;100797.59;;;25.30;65.81
63395;BME280;49531;-34.520;150.798;2023-03-14T03:41:37;100797.78;;;25.39;65.62
63395;BME280;49531;-34.520;150.798;2023-03-14T03:44:04;100786.78;;;25.44;65.46
63395;BME280;49531;-34.520;150.798;2023-03-14T03:46:32;100791.66;;;25.47;65.13
63395;BME280;49531;-34.520;150.798;2023-03-14T03:49:00;100790.03;;;25.46;66.04
63395;BME280;49531;-34.520;150.798;2023-03-14T03:51:27;100784.22;;;25.29;68.06
63395;BME280;49531;-34.520;150.798;2023-03-14T03:53:56;100783.28;;;25.38;66.79
63395;BME280;49531;-34.520;150.798;2023-03-14T03:56:23;100765.94;;;25.48;64.97
63395;BME280;49531;-34.520;150.798;2023-03-14T03:58:50;100780.50;;;25.43;64.43
63395;BME280;49531;-34.520;150.798;2023-03-14T04:01:17;100770.59;;;25.47;64.14
63395;BME280;49531;-34.520;150.798;2023-03-14T04:03:44;100770.38;;;25.44;64.82
63395;BME280;49531;-34.520;150.798;2023-03-14T04:06:13;100765.13;;;25.47;64.25
63395;BME280;49531;-34.520;150.798;2023-03-14T04:08:41;100759.44;;;25.44;64.45
63395;BME280;49531;-34.520;150.798;2023-03-14T04:11:08;100745.00;;;25.38;64.51
63395;BME280;49531;-34.520;150.798;2023-03-14T04:13:35;100756.06;;;25.52;64.35
63395;BME280;49531;-34.520;150.798;2023-03-14T04:16:02;100752.59;;;25.65;64.13
63395;BME280;49531;-34.520;150.798;2023-03-14T04:18:29;100748.75;;;25.66;63.71
63395;BME280;49531;-34.520;150.798;2023-03-14T04:20:57;100738.63;;;25.67;63.61
63395;BME280;49531;-34.520;150.798;2023-03-14T04:23:25;100746.59;;;25.63;63.94
63395;BME280;49531;-34.520;150.798;2023-03-14T04:25:53;100734.78;;;25.68;63.63
63395;BME280;49531;-34.520;150.798;2023-03-14T04:28:20;100744.72;;;25.82;63.25
63395;BME280;49531;-34.520;150.798;2023-03-14T04:30:47;100739.19;;;25.87;63.26
63395;BME280;49531;-34.520;150.798;2023-03-14T04:33:14;100736.88;;;25.95;63.29
63395;BME280;49531;-34.520;150.798;2023-03-14T04:35:44;100726.53;;;25.91;63.01
63395;BME280;49531;-34.520;150.798;2023-03-14T04:38:12;100729.09;;;26.02;62.94
63395;BME280;49531;-34.520;150.798;2023-03-14T04:40:40;100735.59;;;26.06;63.18
63395;BME280;49531;-34.520;150.798;2023-03-14T04:43:08;100711.25;;;26.04;62.82
63395;BME280;49531;-34.520;150.798;2023-03-14T04:45:37;100718.56;;;26.09;62.88
63395;BME280;49531;-34.520;150.798;2023-03-14T04:48:04;100724.28;;;26.12;62.98
63395;BME280;49531;-34.520;150.798;2023-03-14T04:50:31;100724.41;;;26.21;62.62
63395;BME280;49531;-34.520;150.798;2023-03-14T04:52:58;100729.28;;;26.24;62.58
63395;BME280;49531;-34.520;150.798;2023-03-14T04:55:25;100725.66;;;26.29;62.53
63395;BME280;49531;-34.520;150.798;2023-03-14T04:57:52;100711.22;;;26.23;62.40
63395;BME280;49531;-34.520;150.798;2023-03-14T05:00:19;100718.22;;;26.34;62.29
63395;BME280;49531;-34.520;150.798;2023-03-14T05:02:47;100724.72;;;26.38;62.22
63395;BME280;49531;-34.520;150.798;2023-03-14T05:05:14;100715.88;;;26.41;62.21
63395;BME280;49531;-34.520;150.798;2023-03-14T05:07:41;100712.72;;;26.34;62.12
63395;BME280;49531;-34.520;150.798;2023-03-14T05:10:09;100716.97;;;26.40;62.13
63395;BME280;49531;-34.520;150.798;2023-03-14T05:12:36;100713.03;;;26.46;61.88
63395;BME280;49531;-34.520;150.798;2023-03-14T05:15:04;100716.38;;;26.43;61.82
63395;BME280;49531;-34.520;150.798;2023-03-14T05:17:33;100714.75;;;26.42;61.93
63395;BME280;49531;-34.520;150.798;2023-03-14T05:20:00;100716.09;;;26.45;61.57
63395;BME280;49531;-34.520;150.798;2023-03-14T05:22:27;100703.41;;;26.49;61.59
63395;BME280;49531;-34.520;150.798;2023-03-14T05:24:55;100706.66;;;26.51;61.43
63395;BME280;49531;-34.520;150.798;2023-03-14T05:27:24;100711.94;;;26.47;61.56
63395;BME280;49531;-34.520;150.798;2023-03-14T05:29:51;100713.56;;;26.48;61.28
63395;BME280;49531;-34.520;150.798;2023-03-14T05:32:18;100712.56;;;26.58;61.35
63395;BME280;49531;-34.520;150.798;2023-03-14T05:34:45;100706.28;;;26.57;61.17
63395;BME280;49531;-34.520;150.798;2023-03-14T05:37:13;100722.72;;;26.57;61.16
63395;BME280;49531;-34.520;150.798;2023-03-14T05:39:40;100715.09;;;26.54;61.15
63395;BME280;49531;-34.520;150.798;2023-03-14T05:42:07;100712.19;;;26.65;60.93
63395;BME280;49531;-34.520;150.798;2023-03-14T05:44:34;100725.88;;;26.65;60.97
63395;BME280;49531;-34.520;150.798;2023-03-14T05:47:01;100716.13;;;26.58;61.13
63395;BME280;49531;-34.520;150.798;2023-03-14T05:49:28;100720.09;;;26.66;60.87
63395;BME280;49531;-34.520;150.798;2023-03-14T05:51:55;100725.28;;;26.68;60.54
63395;BME280;49531;-34.520;150.798;2023-03-14T05:54:22;100718.69;;;26.69;60.65
63395;BME280;49531;-34.520;150.798;2023-03-14T05:56:49;100719.81;;;26.68;60.74
63395;BME280;49531;-34.520;150.798;2023-03-14T05:59:16;100723.13;;;26.65;60.81
63395;BME280;49531;-34.520;150.798;2023-03-14T06:01:43;100712.91;;;26.70;60.33
63395;BME280;49531;-34.520;150.798;2023-03-14T06:04:10;100721.34;;;26.74;60.47
63395;BME280;49531;-34.520;150.798;2023-03-14T06:06:37;100722.97;;;26.75;60.26
63395;BME280;49531;-34.520;150.798;2023-03-14T06:09:04;100706.69;;;26.65;60.38
63395;BME280;49531;-34.520;150.798;2023-03-14T06:11:32;100719.78;;;26.81;60.04
63395;BME280;49531;-34.520;150.798;2023-03-14T06:13:59;100718.97;;;26.81;60.08
63395;BME280;49531;-34.520;150.798;2023-03-14T06:16:26;100721.72;;;26.81;60.10
63395;BME280;49531;-34.520;150.798;2023-03-14T06:18:53;100701.44;;;26.68;60.01
63395;BME280;49531;-34.520;150.798;2023-03-14T06:21:20;100705.91;;;26.78;59.79
63395;BME280;49531;-34.520;150.798;2023-03-14T06:23:47;100705.28;;;26.81;60.00
63395;BME280;49531;-34.520;150.798;2023-03-14T06:26:15;100698.59;;;26.73;60.28
63395;BME280;49531;-34.520;150.798;2023-03-14T06:28:42;100710.59;;;26.77;60.05
63395;BME280;49531;-34.520;150.798;2023-03-14T06:31:09;100702.38;;;26.77;59.92
63395;BME280;49531;-34.520;150.798;2023-03-14T06:33:36;100707.22;;;26.80;59.93
63395;BME280;49531;-34.520;150.798;2023-03-14T06:36:03;100703.88;;;26.83;59.93
63395;BME280;49531;-34.520;150.798;2023-03-14T06:38:30;100704.06;;;26.87;59.57
63395;BME280;49531;-34.520;150.798;2023-03-14T06:41:04;100700.59;;;26.81;59.69
63395;BME280;49531;-34.520;150.798;2023-03-14T06:43:31;100697.19;;;26.76;59.88
63395;BME280;49531;-34.520;150.798;2023-03-14T06:45:59;100690.88;;;26.75;59.74
63395;BME280;49531;-34.520;150.798;2023-03-14T06:48:26;100702.13;;;26.87;59.55
63395;BME280;49531;-34.520;150.798;2023-03-14T06:50:53;100688.34;;;26.79;59.67
63395;BME280;49531;-34.520;150.798;2023-03-14T06:53:20;100702.97;;;26.88;59.48
63395;BME280;49531;-34.520;150.798;2023-03-14T06:55:47;100689.94;;;26.80;59.65
63395;BME280;49531;-34.520;150.798;2023-03-14T06:58:14;100711.78;;;26.85;59.50
63395;BME280;49531;-34.520;150.798;2023-03-14T07:00:42;100703.75;;;26.88;59.45
63395;BME280;49531;-34.520;150.798;2023-03-14T07:03:10;100692.38;;;26.81;59.53
63395;BME280;49531;-34.520;150.798;2023-03-14T07:05:37;100700.31;;;26.83;59.40
63395;BME280;49531;-34.520;150.798;2023-03-14T07:08:07;100698.06;;;26.85;59.51
63395;BME280;49531;-34.520;150.798;2023-03-14T07:10:34;100696.44;;;26.84;59.33
63395;BME280;49531;-34.520;150.798;2023-03-14T07:13:02;100711.78;;;26.85;59.38
63395;BME280;49531;-34.520;150.798;2023-03-14T07:15:30;100715.34;;;26.85;59.36
63395;BME280;49531;-34.520;150.798;2023-03-14T07:17:57;100714.22;;;26.86;59.23
63395;BME280;49531;-34.520;150.798;2023-03-14T07:20:24;100706.91;;;26.82;59.31
63395;BME280;49531;-34.520;150.798;2023-03-14T07:22:51;100715.03;;;26.87;59.37
63395;BME280;49531;-34.520;150.798;2023-03-14T07:25:18;100707.41;;;26.84;59.42
63395;BME280;49531;-34.520;150.798;2023-03-14T07:27:46;100702.44;;;26.86;59.45
63395;BME280;49531;-34.520;150.798;2023-03-14T07:30:14;100695.56;;;26.75;59.37
63395;BME280;49531;-34.520;150.798;2023-03-14T07:32:41;100709.03;;;26.85;59.27
63395;BME280;49531;-34.520;150.798;2023-03-14T07:35:08;100707.41;;;26.84;59.33
63395;BME280;49531;-34.520;150.798;2023-03-14T07:37:35;100699.50;;;26.82;59.26
63395;BME280;49531;-34.520;150.798;2023-03-14T07:40:02;100695.44;;;26.80;59.10
63395;BME280;49531;-34.520;150.798;2023-03-14T07:42:33;100704.97;;;26.82;59.26
63395;BME280;49531;-34.520;150.798;2023-03-14T07:45:00;100707.72;;;26.82;59.32
63395;BME280;49531;-34.520;150.798;2023-03-14T07:47:27;100709.56;;;26.87;58.98
63395;BME280;49531;-34.520;150.798;2023-03-14T07:49:54;100719.41;;;26.88;58.96
63395;BME280;49531;-34.520;150.798;2023-03-14T07:52:21;100706.91;;;26.82;59.17
63395;BME280;49531;-34.520;150.798;2023-03-14T07:54:49;100716.75;;;26.83;59.34
63395;BME280;49531;-34.520;150.798;2023-03-14T07:57:16;100716.16;;;26.86;59.16
63395;BME280;49531;-34.520;150.798;2023-03-14T07:59:44;100713.50;;;26.81;59.21
63395;BME280;49531;-34.520;150.798;2023-03-14T08:02:11;100720.09;;;26.80;59.21
63395;BME280;49531;-34.520;150.798;2023-03-14T08:04:40;100720.59;;;26.82;59.28
63395;BME280;49531;-34.520;150.798;2023-03-14T08:07:07;100720.81;;;26.85;58.97
63395;BME280;49531;-34.520;150.798;2023-03-14T08:09:34;100719.28;;;26.79;58.89
63395;BME280;49531;-34.520;150.798;2023-03-14T08:12:01;100723.97;;;26.79;58.93
63395;BME280;49531;-34.520;150.798;2023-03-14T08:14:29;100727.41;;;26.84;59.00
63395;BME280;49531;-34.520;150.798;2023-03-14T08:16:57;100719.78;;;26.81;58.89
63395;BME280;49531;-34.520;150.798;2023-03-14T08:19:24;100719.91;;;26.76;59.19
63395;BME280;49531;-34.520;150.798;2023-03-14T08:21:51;100717.69;;;26.78;59.08
63395;BME280;49531;-34.520;150.798;2023-03-14T08:24:18;100717.88;;;26.68;59.93
63395;BME280;49531;-34.520;150.798;2023-03-14T08:26:45;100721.03;;;26.43;60.78
63395;BME280;49531;-34.520;150.798;2023-03-14T08:29:13;100715.59;;;26.56;60.14
63395;BME280;49531;-34.520;150.798;2023-03-14T08:31:40;100711.84;;;26.52;60.63
63395;BME280;49531;-34.520;150.798;2023-03-14T08:34:07;100718.66;;;26.55;60.54
63395;BME280;49531;-34.520;150.798;2023-03-14T08:36:34;100706.44;;;26.47;60.88
63395;BME280;49531;-34.520;150.798;2023-03-14T08:39:02;100713.75;;;26.38;61.02
63395;BME280;49531;-34.520;150.798;2023-03-14T08:41:30;100723.19;;;26.46;60.69
63395;BME280;49531;-34.520;150.798;2023-03-14T08:43:57;100711.50;;;26.40;60.24
63395;BME280;49531;-34.520;150.798;2023-03-14T08:46:24;100712.75;;;26.48;60.08
63395;BME280;49531;-34.520;150.798;2023-03-14T08:48:51;100727.16;;;26.53;60.05
63395;BME280;49531;-34.520;150.798;2023-03-14T08:51:18;100720.06;;;26.52;59.84
63395;BME280;49531;-34.520;150.798;2023-03-14T08:53:45;100704.75;;;26.51;59.44
63395;BME280;49531;-34.520;150.798;2023-03-14T08:56:12;100723.84;;;26.56;59.70
63395;BME280;49531;-34.520;150.798;2023-03-14T08:58:39;100709.63;;;26.54;59.43
63395;BME280;49531;-34.520;150.798;2023-03-14T09:01:09;100719.69;;;26.59;59.47
63395;BME280;49531;-34.520;150.798;2023-03-14T09:03:37;100712.66;;;26.53;59.30
63395;BME280;49531;-34.520;150.798;2023-03-14T09:06:06;100717.53;;;26.56;59.23
63395;BME280;49531;-34.520;150.798;2023-03-14T09:08:34;100720.50;;;26.60;59.49
63395;BME280;49531;-34.520;150.798;2023-03-14T09:11:02;100712.56;;;26.58;59.41
63395;BME280;49531;-34.520;150.798;2023-03-14T09:13:29;100714.59;;;26.52;59.03
63395;BME280;49531;-34.520;150.798;2023-03-14T09:15:57;100717.22;;;26.57;59.21
63395;BME280;49531;-34.520;150.798;2023-03-14T09:18:24;100723.22;;;26.60;59.13
63395;BME280;49531;-34.520;150.798;2023-03-14T09:20:51;100724.03;;;26.60;58.98
63395;BME280;49531;-34.520;150.798;2023-03-14T09:23:18;100727.91;;;26.59;59.01
63395;BME280;49531;-34.520;150.798;2023-03-14T09:25:45;100724.13;;;26.55;59.12
63395;BME280;49531;-34.520;150.798;2023-03-14T09:28:12;100732.34;;;26.55;59.00
63395;BME280;49531;-34.520;150.798;2023-03-14T09:30:40;100729.00;;;26.58;59.14
63395;BME280;49531;-34.520;150.798;2023-03-14T09:33:07;100733.69;;;26.57;59.23
63395;BME280;49531;-34.520;150.798;2023-03-14T09:35:34;100724.44;;;26.53;58.95
63395;BME280;49531;-34.520;150.798;2023-03-14T09:38:02;100728.19;;;26.57;59.14
63395;BME280;49531;-34.520;150.798;2023-03-14T09:40:35;100745.75;;;26.56;59.14
63395;BME280;49531;-34.520;150.798;2023-03-14T09:43:02;100733.25;;;26.50;58.85
63395;BME280;49531;-34.520;150.798;2023-03-14T09:45:36;100738.44;;;26.52;59.12
63395;BME280;49531;-34.520;150.798;2023-03-14T09:48:14;100752.63;;;26.54;58.91
63395;BME280;49531;-34.520;150.798;2023-03-14T09:50:49;100750.19;;;26.52;58.86
63395;BME280;49531;-34.520;150.798;2023-03-14T09:53:19;100764.41;;;26.54;58.94
63395;BME280;49531;-34.520;150.798;2023-03-14T09:55:49;100749.16;;;26.48;58.96
63395;BME280;49531;-34.520;150.798;2023-03-14T09:58:20;100759.53;;;26.51;58.81
63395;BME280;49531;-34.520;150.798;2023-03-14T10:00:51;100744.81;;;26.47;58.96
63395;BME280;49531;-34.520;150.798;2023-03-14T10:03:27;100753.84;;;26.48;59.07
63395;BME280;49531;-34.520;150.798;2023-03-14T10:05:56;100745.41;;;26.44;58.95
63395;BME280;49531;-34.520;150.798;2023-03-14T10:08:23;100748.94;;;26.45;59.03
63395;BME280;49531;-34.520;150.798;2023-03-14T10:10:50;100755.75;;;26.47;58.60
63395;BME280;49531;-34.520;150.798;2023-03-14T10:13:23;100749.75;;;26.45;59.01
63395;BME280;49531;-34.520;150.798;2023-03-14T10:15:55;100748.75;;;26.41;58.86
63395;BME280;49531;-34.520;150.798;2023-03-14T10:18:23;100754.22;;;26.41;58.79
63395;BME280;49531;-34.520;150.798;2023-03-14T10:21:03;100756.94;;;26.41;58.61
63395;BME280;49531;-34.520;150.798;2023-03-14T10:23:32;100749.66;;;26.37;58.60
63395;BME280;49531;-34.520;150.798;2023-03-14T10:26:07;100763.25;;;26.42;58.85
63395;BME280;49531;-34.520;150.798;2023-03-14T10:28:39;100761.13;;;26.39;58.94
63395;BME280;49531;-34.520;150.798;2023-03-14T10:31:07;100758.38;;;26.39;58.76
63395;BME280;49531;-34.520;150.798;2023-03-14T10:33:36;100754.31;;;26.36;58.78
63395;BME280;49531;-34.520;150.798;2023-03-14T10:36:26;100758.69;;;26.37;58.50
63395;BME280;49531;-34.520;150.798;2023-03-14T10:39:15;100759.00;;;26.36;58.64
63395;BME280;49531;-34.520;150.798;2023-03-14T10:41:48;100760.41;;;26.33;58.55
63395;BME280;49531;-34.520;150.798;2023-03-14T10:44:20;100761.22;;;26.34;58.50
63395;BME280;49531;-34.520;150.798;2023-03-14T10:46:56;100773.78;;;26.35;58.71
63395;BME280;49531;-34.520;150.798;2023-03-14T10:49:32;100768.66;;;26.28;58.36
63395;BME280;49531;-34.520;150.798;2023-03-14T10:52:21;100756.03;;;26.32;58.57
63395;BME280;49531;-34.520;150.798;2023-03-14T10:54:55;100749.50;;;26.28;58.54
63395;BME280;49531;-34.520;150.798;2023-03-14T10:57:23;100763.69;;;26.30;58.46
63395;BME280;49531;-34.520;150.798;2023-03-14T10:59:51;100739.94;;;26.25;58.32
63395;BME280;49531;-34.520;150.798;2023-03-14T11:02:37;100735.81;;;26.28;58.43
63395;BME280;49531;-34.520;150.798;2023-03-14T11:05:38;100741.28;;;26.28;58.49
63395;BME280;49531;-34.520;150.798;2023-03-14T11:08:15;100740.25;;;26.24;58.29
63395;BME280;49531;-34.520;150.798;2023-03-14T11:10:51;100733.28;;;26.13;58.72
63395;BME280;49531;-34.520;150.798;2023-03-14T11:13:37;100741.66;;;26.21;58.53
63395;BME280;49531;-34.520;150.798;2023-03-14T11:16:22;100743.88;;;26.19;58.28
63395;BME280;49531;-34.520;150.798;2023-03-14T11:19:10;100751.78;;;26.21;58.28
63395;BME280;49531;-34.520;150.798;2023-03-14T11:21:52;100740.09;;;26.15;58.40
63395;BME280;49531;-34.520;150.798;2023-03-14T11:25:04;100736.03;;;26.13;58.53
63395;BME280;49531;-34.520;150.798;2023-03-14T11:27:41;100752.38;;;26.18;58.35
63395;BME280;49531;-34.520;150.798;2023-03-14T11:30:18;100736.34;;;26.11;58.26
63395;BME280;49531;-34.520;150.798;2023-03-14T11:32:56;100743.44;;;26.12;58.53
63395;BME280;49531;-34.520;150.798;2023-03-14T11:35:33;100731.88;;;26.15;58.51
63395;BME280;49531;-34.520;150.798;2023-03-14T11:40:51;100723.97;;;26.14;58.18
63395;BME280;49531;-34.520;150.798;2023-03-14T11:43:28;100715.84;;;26.09;58.19
63395;BME280;49531;-34.520;150.798;2023-03-14T11:46:01;100713.09;;;26.09;58.41
63395;BME280;49531;-34.520;150.798;2023-03-14T11:48:40;100716.13;;;26.07;58.49
63395;BME280;49531;-34.520;150.798;2023-03-14T11:51:20;100719.09;;;26.11;58.19
63395;BME280;49531;-34.520;150.798;2023-03-14T11:54:02;100715.63;;;26.05;58.37
63395;BME280;49531;-34.520;150.798;2023-03-14T11:56:37;100703.34;;;26.03;58.47
63395;BME280;49531;-34.520;150.798;2023-03-14T11:59:15;100700.31;;;26.04;58.37
63395;BME280;49531;-34.520;150.798;2023-03-14T12:01:58;100697.88;;;26.03;58.33
63395;BME280;49531;-34.520;150.798;2023-03-14T12:04:40;100697.78;;;26.08;58.37
63395;BME280;49531;-34.520;150.798;2023-03-14T12:07:17;100684.47;;;26.01;58.35
63395;BME280;49531;-34.520;150.798;2023-03-14T12:09:47;100677.88;;;26.02;58.25
63395;BME280;49531;-34.520;150.798;2023-03-14T12:12:19;100675.97;;;26.03;58.46
63395;BME280;49531;-34.520;150.798;2023-03-14T12:14:59;100667.25;;;26.01;58.10
63395;BME280;49531;-34.520;150.798;2023-03-14T12:17:37;100665.31;;;26.01;58.47
63395;BME280;49531;-34.520;150.798;2023-03-14T12:20:25;100657.91;;;26.02;58.25
63395;BME280;49531;-34.520;150.798;2023-03-14T12:23:01;100659.03;;;26.01;58.36
63395;BME280;49531;-34.520;150.798;2023-03-14T12:25:32;100644.94;;;25.94;58.02
63395;BME280;49531;-34.520;150.798;2023-03-14T12:28:12;100644.84;;;25.99;58.02
63395;BME280;49531;-34.520;150.798;2023-03-14T12:30:43;100644.34;;;25.97;58.36
63395;BME280;49531;-34.520;150.798;2023-03-14T12:33:19;100641.59;;;25.97;58.31
63395;BME280;49531;-34.520;150.798;2023-03-14T12:35:49;100643.53;;;25.96;58.16
63395;BME280;49531;-34.520;150.798;2023-03-14T12:38:32;100628.09;;;25.86;58.19
63395;BME280;49531;-34.520;150.798;2023-03-14T12:44:38;100620.31;;;25.94;58.25
63395;BME280;49531;-34.520;150.798;2023-03-14T12:47:40;100618.16;;;25.90;57.93
63395;BME280;49531;-34.520;150.798;2023-03-14T12:50:15;100622.00;;;25.89;58.05
63395;BME280;49531;-34.520;150.798;2023-03-14T12:53:02;100630.53;;;25.88;58.11
63395;BME280;49531;-34.520;150.798;2023-03-14T12:55:42;100609.09;;;25.76;58.26
63395;BME280;49531;-34.520;150.798;2023-03-14T12:58:28;100614.78;;;25.80;58.03
63395;BME280;49531;-34.520;150.798;2023-03-14T13:01:00;100615.59;;;25.80;57.88